Orkney, United Kingdom
Current Conditions -  °F | °C
As of 3:20 PM on Thursday 18 Dec 2014 (Local Time) from EGPA Reporting Station
Rain Showers Rain Showers  
Wind Chill: 33°   Ceiling: Unl
Heat Index: 41°   Visibility: 6mi
Dew Point: 37°   Wind: 15mph
Humidity: 87%   Direction: 260°W
Pressure: 29.15"   Gusts: 33mph
Location:  59.16°N, 2.77°W
Report Text: EGPA 181520Z 26013G29KT 9999 VCSH FEW008CB SCT025 SCT035 05/03 Q0987 RERA RESN
Loading
Personal Weather Stations






























Interactive Weather Map New forecast layout! Learn more

10-Day Weather Forecast

Advertisements
Track Severe Weather on mobile